createdAt,value
2018-10-05T00:00:58.817Z,7.93
2018-10-05T00:03:26.974Z,9.63
2018-10-05T00:05:55.148Z,8.37
2018-10-05T00:08:23.326Z,8.93
2018-10-05T00:10:51.555Z,8.50
2018-10-05T00:13:19.847Z,7.67
2018-10-05T00:15:48.151Z,7.73
2018-10-05T00:18:16.682Z,8.07
2018-10-05T00:20:44.863Z,7.67
2018-10-05T00:23:13.060Z,7.40
2018-10-05T00:25:41.242Z,7.70
2018-10-05T00:28:09.435Z,8.00
2018-10-05T00:30:37.600Z,7.93
2018-10-05T00:33:05.778Z,7.37
2018-10-05T00:35:33.994Z,7.97
2018-10-05T00:38:02.425Z,8.43
2018-10-05T00:40:30.809Z,7.60
2018-10-05T00:42:59.018Z,8.37
2018-10-05T00:45:27.483Z,8.70
2018-10-05T00:47:55.710Z,8.40
2018-10-05T00:50:23.934Z,7.97
2018-10-05T00:52:52.220Z,8.43
2018-10-05T00:55:20.683Z,7.83
2018-10-05T00:57:48.931Z,7.33
2018-10-05T01:00:17.401Z,6.90
2018-10-05T01:02:45.619Z,7.93
2018-10-05T01:05:14.100Z,8.47
2018-10-05T01:07:42.567Z,8.40
2018-10-05T01:10:10.778Z,8.60
2018-10-05T01:12:38.983Z,9.30
2018-10-05T01:15:07.255Z,10.10
2018-10-05T01:17:35.493Z,8.60
2018-10-05T01:20:03.944Z,7.97
2018-10-05T01:22:32.395Z,8.53
2018-10-05T01:25:00.722Z,9.23
2018-10-05T01:27:29.090Z,7.93
2018-10-05T01:29:57.673Z,7.97
2018-10-05T01:32:25.904Z,9.07
2018-10-05T01:34:54.131Z,8.03
2018-10-05T01:37:22.367Z,9.20
2018-10-05T01:39:50.662Z,8.97
2018-10-05T01:42:18.858Z,9.13
2018-10-05T01:44:47.048Z,9.63
2018-10-05T01:47:15.253Z,10.70
2018-10-05T01:49:43.450Z,10.17
2018-10-05T01:52:11.758Z,10.77
2018-10-05T01:54:39.943Z,11.03
2018-10-05T01:57:08.126Z,10.70
2018-10-05T01:59:36.290Z,10.47
2018-10-05T02:02:04.482Z,11.43
2018-10-05T02:04:32.642Z,11.57
2018-10-05T02:07:00.832Z,10.17
2018-10-05T02:09:28.995Z,10.10
2018-10-05T02:11:57.171Z,9.97
2018-10-05T02:14:26.366Z,10.30
2018-10-05T02:16:54.534Z,10.13
2018-10-05T02:19:22.695Z,10.70
2018-10-05T02:21:50.895Z,10.90
2018-10-05T02:24:19.074Z,10.13
2018-10-05T02:26:47.270Z,9.97
2018-10-05T02:29:15.462Z,9.87
2018-10-05T02:31:43.872Z,9.63
2018-10-05T02:34:12.063Z,9.50
2018-10-05T02:36:40.300Z,9.93
2018-10-05T02:39:10.606Z,10.40
2018-10-05T02:41:38.917Z,10.17
2018-10-05T02:44:07.154Z,11.50
2018-10-05T02:46:36.614Z,11.17
2018-10-05T02:49:04.809Z,11.50
2018-10-05T02:51:33.070Z,10.90
2018-10-05T02:54:01.483Z,11.33
2018-10-05T02:56:29.674Z,10.13
2018-10-05T02:58:57.871Z,11.30
2018-10-05T03:01:37.469Z,10.80
2018-10-05T03:04:05.662Z,11.23
2018-10-05T03:06:34.047Z,11.00
2018-10-05T03:09:02.222Z,12.57
2018-10-05T03:11:30.404Z,12.77
2018-10-05T03:13:58.603Z,11.33
2018-10-05T03:16:26.818Z,11.83
2018-10-05T03:18:55.014Z,12.70
2018-10-05T03:21:23.182Z,12.07
2018-10-05T03:23:51.378Z,11.70
2018-10-05T03:26:19.767Z,12.00
2018-10-05T03:28:47.982Z,12.07
2018-10-05T03:31:16.157Z,10.73
2018-10-05T03:33:44.359Z,10.57
2018-10-05T03:36:12.535Z,9.40
2018-10-05T03:38:40.725Z,9.90
2018-10-05T03:41:09.166Z,10.50
2018-10-05T03:43:37.378Z,9.37
2018-10-05T03:46:05.863Z,9.50
2018-10-05T03:48:34.086Z,10.53
2018-10-05T03:51:02.402Z,10.00
2018-10-05T03:53:30.887Z,9.97
2018-10-05T03:55:59.122Z,11.37
2018-10-05T03:58:27.338Z,9.67
2018-10-05T04:00:55.507Z,10.27
2018-10-05T04:03:23.679Z,11.07
2018-10-05T04:05:51.853Z,10.57
2018-10-05T04:08:20.026Z,10.37
2018-10-05T04:10:48.248Z,10.50
2018-10-05T04:13:16.389Z,11.27
2018-10-05T04:15:44.572Z,11.00
2018-10-05T04:18:12.762Z,9.67
2018-10-05T04:20:40.969Z,9.00
2018-10-05T04:23:09.155Z,9.30
2018-10-05T04:25:37.555Z,8.53
2018-10-05T04:28:05.729Z,8.97
2018-10-05T04:30:33.879Z,7.80
2018-10-05T04:33:02.056Z,8.03
2018-10-05T04:35:30.477Z,9.07
2018-10-05T04:37:58.646Z,9.57
2018-10-05T04:40:26.830Z,10.17
2018-10-05T04:42:55.035Z,10.37
2018-10-05T04:45:23.261Z,11.50
2018-10-05T04:47:51.647Z,10.53
2018-10-05T04:50:19.832Z,10.90
2018-10-05T04:52:48.014Z,10.97
2018-10-05T04:55:16.211Z,10.70
2018-10-05T04:57:44.382Z,10.80
2018-10-05T05:00:13.000Z,11.23
2018-10-05T05:02:41.265Z,11.13
2018-10-05T05:05:09.874Z,10.93
2018-10-05T05:07:38.077Z,11.37
2018-10-05T05:10:06.523Z,11.73
2018-10-05T05:12:34.694Z,11.27
2018-10-05T05:15:02.888Z,11.37
2018-10-05T05:17:31.120Z,11.43
2018-10-05T05:19:59.302Z,11.83
2018-10-05T05:22:27.478Z,12.23
2018-10-05T05:24:55.739Z,10.77
2018-10-05T05:27:24.131Z,11.27
2018-10-05T05:29:52.310Z,12.00
2018-10-05T05:32:20.534Z,10.77
2018-10-05T05:34:48.730Z,11.23
2018-10-05T05:37:16.895Z,10.67
2018-10-05T05:39:45.097Z,11.00
2018-10-05T05:42:13.344Z,13.03
2018-10-05T05:44:41.543Z,11.57
2018-10-05T05:47:09.867Z,10.50
2018-10-05T05:49:38.094Z,9.77
2018-10-05T05:52:06.510Z,9.30
2018-10-05T05:54:34.804Z,9.60
2018-10-05T05:57:02.971Z,10.37
2018-10-05T05:59:31.215Z,10.37
2018-10-05T06:01:59.443Z,11.10
2018-10-05T06:04:27.693Z,11.43
2018-10-05T06:06:55.898Z,11.87
2018-10-05T06:09:24.150Z,11.50
2018-10-05T06:11:52.353Z,11.87
2018-10-05T06:14:20.795Z,12.23
2018-10-05T06:16:49.010Z,13.27
2018-10-05T06:19:17.215Z,12.83
2018-10-05T06:21:45.801Z,14.43
2018-10-05T06:24:13.927Z,16.53
2018-10-05T06:26:42.162Z,15.13
2018-10-05T06:29:10.593Z,13.77
2018-10-05T06:31:38.839Z,13.80
2018-10-05T06:34:07.276Z,15.10
2018-10-05T06:36:35.859Z,14.47
2018-10-05T06:39:05.369Z,14.17
2018-10-05T06:41:33.531Z,14.47
2018-10-05T06:44:01.935Z,16.20
2018-10-05T06:46:30.342Z,15.53
2018-10-05T06:48:58.511Z,16.57
2018-10-05T06:51:26.684Z,16.00
2018-10-05T06:53:54.859Z,17.43
2018-10-05T06:56:23.018Z,13.70
2018-10-05T06:58:51.200Z,15.30
2018-10-05T07:01:19.593Z,20.13
2018-10-05T07:03:47.743Z,23.50
2018-10-05T07:06:15.943Z,24.43
2018-10-05T07:08:44.118Z,17.17
2018-10-05T07:11:12.291Z,15.00
2018-10-05T07:13:40.575Z,13.97
2018-10-05T07:16:08.752Z,12.43
2018-10-05T07:18:36.932Z,12.57
2018-10-05T07:21:05.364Z,12.93
2018-10-05T07:23:33.551Z,13.17
2018-10-05T07:26:01.774Z,12.33
2018-10-05T07:28:30.173Z,11.87
2018-10-05T07:30:58.307Z,12.23
2018-10-05T07:33:26.474Z,12.17
2018-10-05T07:35:54.654Z,11.23
2018-10-05T07:38:22.839Z,10.17
2018-10-05T07:40:51.184Z,9.03
2018-10-05T07:43:19.443Z,10.33
2018-10-05T07:45:47.614Z,9.50
2018-10-05T07:48:15.787Z,9.07
2018-10-05T07:50:43.963Z,8.00
2018-10-05T07:53:12.141Z,8.27
2018-10-05T07:55:40.311Z,7.95
2018-10-05T07:58:08.476Z,7.87
2018-10-05T08:00:36.663Z,7.62
2018-10-05T08:03:04.887Z,6.85
2018-10-05T08:05:33.066Z,7.20
2018-10-05T08:08:01.259Z,7.28
2018-10-05T08:10:29.447Z,7.10
2018-10-05T08:12:57.650Z,6.28
2018-10-05T08:15:25.814Z,6.42
2018-10-05T08:17:53.996Z,6.28
2018-10-05T08:20:22.223Z,6.53
2018-10-05T08:22:50.459Z,6.22
2018-10-05T08:25:18.632Z,6.55
2018-10-05T08:27:46.819Z,6.65
2018-10-05T08:30:15.003Z,6.15
2018-10-05T08:32:43.303Z,6.45
2018-10-05T08:35:11.496Z,6.45
2018-10-05T08:37:39.702Z,7.37
2018-10-05T08:40:08.128Z,6.58
2018-10-05T08:42:36.308Z,6.58
2018-10-05T08:45:04.543Z,6.85
2018-10-05T08:47:32.883Z,6.80
2018-10-05T08:50:01.370Z,5.85
2018-10-05T08:52:29.548Z,6.12
2018-10-05T08:54:57.958Z,6.78
2018-10-05T08:57:26.142Z,5.70
2018-10-05T08:59:54.402Z,5.65
2018-10-05T09:02:22.567Z,5.90
2018-10-05T09:04:50.731Z,5.53
2018-10-05T09:07:18.927Z,5.97
2018-10-05T09:09:47.095Z,7.03
2018-10-05T09:12:15.410Z,6.22
2018-10-05T09:14:43.666Z,6.83
2018-10-05T09:17:11.865Z,6.30
2018-10-05T09:19:40.030Z,5.58
2018-10-05T09:22:08.214Z,5.65
2018-10-05T09:24:36.382Z,6.47
2018-10-05T09:27:04.619Z,6.37
2018-10-05T09:29:32.819Z,6.75
2018-10-05T09:32:01.122Z,13.22
2018-10-05T09:34:29.323Z,6.15
2018-10-05T09:36:57.580Z,6.17
2018-10-05T09:39:25.727Z,6.10
2018-10-05T09:41:53.934Z,6.35
2018-10-05T09:44:22.138Z,10.95
2018-10-05T09:46:50.332Z,7.15
2018-10-05T09:49:18.523Z,10.78
2018-10-05T09:51:46.799Z,14.98
2018-10-05T09:54:15.279Z,8.15
2018-10-05T09:56:43.874Z,5.50
2018-10-05T09:59:12.670Z,5.42
2018-10-05T10:01:46.319Z,7.17
2018-10-05T10:04:14.522Z,4.87
2018-10-05T10:06:42.712Z,5.10
2018-10-05T10:09:10.922Z,5.62
2018-10-05T10:11:39.115Z,5.00
2018-10-05T10:14:07.430Z,5.22
2018-10-05T10:16:36.230Z,5.03
2018-10-05T10:19:04.528Z,4.97
2018-10-05T10:21:32.747Z,4.75
2018-10-05T10:24:00.966Z,5.28
2018-10-05T10:26:29.158Z,4.78
2018-10-05T10:28:57.408Z,4.62
2018-10-05T10:31:25.569Z,4.62
2018-10-05T10:33:53.775Z,4.97
2018-10-05T10:36:21.963Z,5.00
2018-10-05T10:38:50.598Z,4.87
2018-10-05T10:41:19.010Z,4.17
2018-10-05T10:43:47.297Z,3.67
2018-10-05T10:46:15.751Z,3.70
2018-10-05T10:48:44.019Z,3.90
2018-10-05T10:51:12.273Z,4.55
2018-10-05T10:53:40.522Z,4.30
2018-10-05T10:56:08.742Z,5.00
2018-10-05T10:58:37.018Z,3.72
2018-10-05T11:01:05.527Z,3.47
2018-10-05T11:03:34.358Z,3.50
2018-10-05T11:06:05.177Z,4.55
2018-10-05T11:08:33.540Z,3.05
2018-10-05T11:11:01.812Z,3.77
2018-10-05T11:13:30.016Z,3.87
2018-10-05T11:15:58.468Z,3.25
2018-10-05T11:18:26.686Z,4.10
2018-10-05T11:20:54.919Z,3.90
2018-10-05T11:23:23.472Z,8.23
2018-10-05T11:25:51.723Z,32.48
2018-10-05T11:28:19.968Z,5.35
2018-10-05T11:30:48.224Z,4.10
2018-10-05T11:33:16.430Z,3.80
2018-10-05T11:35:44.878Z,3.20
2018-10-05T11:38:13.112Z,3.55
2018-10-05T11:40:41.400Z,3.67
2018-10-05T11:43:09.783Z,3.58
2018-10-05T11:45:38.012Z,3.72
2018-10-05T11:48:06.287Z,2.87
2018-10-05T11:50:34.998Z,3.60
2018-10-05T11:53:03.235Z,3.42
2018-10-05T11:55:31.472Z,3.22
2018-10-05T11:57:59.729Z,2.90
2018-10-05T12:00:27.934Z,2.77
2018-10-05T12:02:56.151Z,2.60
2018-10-05T12:05:24.636Z,3.08
2018-10-05T12:07:52.871Z,2.67
2018-10-05T12:10:21.324Z,2.58
2018-10-05T12:12:49.581Z,2.80
2018-10-05T12:15:18.042Z,2.52
2018-10-05T12:17:46.262Z,3.10
2018-10-05T12:20:14.467Z,2.22
2018-10-05T12:22:42.696Z,2.30
2018-10-05T12:25:10.931Z,3.25
2018-10-05T12:27:39.150Z,2.50
2018-10-05T12:30:07.483Z,2.60
2018-10-05T12:32:35.905Z,2.52
2018-10-05T12:35:04.584Z,3.17
2018-10-05T12:37:32.809Z,2.22
2018-10-05T12:40:01.237Z,2.20
2018-10-05T12:42:29.475Z,2.87
2018-10-05T12:44:57.706Z,2.58
2018-10-05T12:47:25.924Z,2.85
2018-10-05T12:49:54.101Z,2.10
2018-10-05T12:52:22.295Z,2.42
2018-10-05T12:54:50.524Z,2.58
2018-10-05T12:57:18.703Z,2.20
2018-10-05T12:59:46.908Z,2.02
2018-10-05T13:02:15.130Z,2.50
2018-10-05T13:04:43.338Z,2.10
2018-10-05T13:07:11.535Z,2.40
2018-10-05T13:09:39.710Z,1.98
2018-10-05T13:12:07.879Z,2.30
2018-10-05T13:14:36.048Z,2.12
2018-10-05T13:17:04.221Z,2.17
2018-10-05T13:19:32.394Z,2.00
2018-10-05T13:22:00.875Z,2.67
2018-10-05T13:24:28.958Z,2.58
2018-10-05T13:26:57.138Z,2.60
2018-10-05T13:29:25.310Z,2.75
2018-10-05T13:31:53.478Z,2.40
2018-10-05T13:34:21.646Z,2.33
2018-10-05T13:36:49.815Z,2.33
2018-10-05T13:39:18.181Z,2.30
2018-10-05T13:41:46.595Z,5.10
2018-10-05T13:44:14.778Z,3.00
2018-10-05T13:46:42.955Z,2.35
2018-10-05T13:49:11.137Z,2.27
2018-10-05T13:51:39.318Z,2.00
2018-10-05T13:54:07.494Z,3.37
2018-10-05T13:56:35.924Z,2.83
2018-10-05T13:59:04.591Z,2.40
2018-10-05T14:01:32.779Z,2.20
2018-10-05T14:04:00.955Z,2.30
2018-10-05T14:06:29.145Z,2.60
2018-10-05T14:08:57.338Z,2.40
2018-10-05T14:11:25.518Z,2.25
2018-10-05T14:13:53.688Z,2.05
2018-10-05T14:16:21.882Z,2.62
2018-10-05T14:18:50.183Z,2.15
2018-10-05T14:21:18.395Z,2.50
2018-10-05T14:23:46.577Z,2.27
2018-10-05T14:26:14.772Z,2.30
2018-10-05T14:28:42.951Z,4.45
2018-10-05T14:31:11.164Z,12.70
2018-10-05T14:33:39.371Z,2.65
2018-10-05T14:36:07.574Z,2.40
2018-10-05T14:38:35.771Z,2.50
2018-10-05T14:41:04.033Z,2.70
2018-10-05T14:43:32.510Z,2.30
2018-10-05T14:46:00.971Z,2.42
2018-10-05T14:48:30.012Z,2.67
2018-10-05T14:50:58.239Z,2.30
2018-10-05T14:53:26.513Z,2.75
2018-10-05T14:55:54.719Z,2.75
2018-10-05T14:58:22.971Z,2.10
2018-10-05T15:00:51.403Z,2.45
2018-10-05T15:03:19.614Z,3.72
2018-10-05T15:05:47.842Z,3.22
2018-10-05T15:08:16.597Z,2.10
2018-10-05T15:10:44.808Z,2.40
2018-10-05T15:13:13.087Z,2.10
2018-10-05T15:15:41.251Z,2.60
2018-10-05T15:18:09.749Z,2.72
2018-10-05T15:20:37.957Z,2.33
2018-10-05T15:23:06.239Z,2.80
2018-10-05T15:25:34.721Z,2.42
2018-10-05T15:28:02.940Z,2.10
2018-10-05T15:30:31.707Z,2.70
2018-10-05T15:32:59.939Z,2.45
2018-10-05T15:35:28.365Z,2.40
2018-10-05T15:37:56.803Z,2.27
2018-10-05T15:40:25.043Z,12.35
2018-10-05T15:42:53.267Z,4.15
2018-10-05T15:45:21.466Z,4.03
2018-10-05T15:47:49.706Z,3.20
2018-10-05T15:50:18.123Z,2.87
2018-10-05T15:52:46.870Z,3.10
2018-10-05T15:55:15.072Z,2.77
2018-10-05T15:57:43.546Z,6.45
2018-10-05T16:00:12.010Z,9.33
2018-10-05T16:02:40.472Z,18.00
2018-10-05T16:05:09.015Z,8.50
2018-10-05T16:07:37.258Z,8.15
2018-10-05T16:10:05.691Z,8.50
2018-10-05T16:12:34.165Z,5.78
2018-10-05T16:15:02.598Z,4.08
2018-10-05T16:17:30.819Z,5.10
2018-10-05T16:19:59.395Z,3.98
2018-10-05T16:22:27.847Z,3.70
2018-10-05T16:24:56.155Z,2.60
2018-10-05T16:27:24.292Z,2.37
2018-10-05T16:29:52.560Z,2.50
2018-10-05T16:32:20.994Z,2.70
2018-10-05T16:34:49.207Z,2.33
2018-10-05T16:37:17.718Z,1.98
2018-10-05T16:39:45.943Z,2.42
2018-10-05T16:42:14.588Z,3.20
2018-10-05T16:44:43.256Z,1.90
2018-10-05T16:47:11.596Z,2.30
2018-10-05T16:49:39.805Z,2.08
2018-10-05T16:52:08.018Z,2.50
2018-10-05T16:54:36.551Z,2.30
2018-10-05T16:57:04.814Z,2.92
2018-10-05T16:59:33.048Z,5.20
2018-10-05T17:02:01.263Z,5.53
2018-10-05T17:04:29.708Z,4.60
2018-10-05T17:06:58.148Z,6.85
2018-10-05T17:09:26.594Z,3.70
2018-10-05T17:11:54.803Z,3.62
2018-10-05T17:14:23.006Z,3.90
2018-10-05T17:16:51.250Z,3.27
2018-10-05T17:19:19.708Z,4.95
2018-10-05T17:21:47.910Z,6.67
2018-10-05T17:24:16.142Z,5.78
2018-10-05T17:26:44.365Z,5.75
2018-10-05T17:29:12.604Z,6.43
2018-10-05T17:31:40.826Z,5.28
2018-10-05T17:34:09.262Z,6.27
2018-10-05T17:36:37.523Z,7.60
2018-10-05T17:39:08.815Z,6.35
2018-10-05T17:41:37.050Z,5.47
2018-10-05T17:44:06.594Z,5.63
2018-10-05T17:46:34.816Z,34.93
2018-10-05T17:49:03.660Z,12.97
2018-10-05T17:51:33.186Z,6.60
2018-10-05T17:54:01.638Z,5.30
2018-10-05T17:59:22.999Z,12.47
2018-10-05T18:01:51.353Z,12.30
2018-10-05T18:04:20.597Z,11.77
2018-10-05T18:06:49.288Z,14.30
2018-10-05T18:09:17.992Z,11.57
2018-10-05T18:11:46.631Z,8.10
2018-10-05T18:14:15.363Z,8.87
2018-10-05T18:16:44.664Z,8.03
2018-10-05T18:19:13.398Z,9.53
2018-10-05T18:21:41.793Z,9.33
2018-10-05T18:24:10.327Z,7.97
2018-10-05T18:26:39.023Z,9.27
2018-10-05T18:29:07.734Z,10.20
2018-10-05T18:31:36.453Z,9.53
2018-10-05T18:34:05.501Z,9.77
2018-10-05T18:36:33.791Z,9.33
2018-10-05T18:39:02.339Z,8.97
2018-10-05T18:41:30.767Z,9.67
2018-10-05T18:43:59.415Z,9.67
2018-10-05T18:46:28.909Z,10.40
2018-10-05T18:48:57.506Z,13.50
2018-10-05T18:51:26.790Z,12.77
2018-10-05T18:53:55.022Z,11.40
2018-10-05T18:56:34.591Z,7.17
2018-10-05T18:59:03.429Z,6.07
2018-10-05T19:01:32.210Z,6.80
2018-10-05T19:04:02.892Z,7.23
2018-10-05T19:06:32.277Z,8.60
2018-10-05T19:09:01.486Z,7.23
2018-10-05T19:11:29.912Z,7.97
2018-10-05T19:13:58.356Z,7.17
2018-10-05T19:16:27.837Z,7.87
2018-10-05T19:18:56.231Z,6.93
2018-10-05T19:21:24.782Z,6.33
2018-10-05T19:23:52.958Z,6.30
2018-10-05T19:26:21.264Z,7.70
2018-10-05T19:28:49.518Z,6.93
2018-10-05T19:31:17.694Z,6.50
2018-10-05T19:33:45.873Z,6.63
2018-10-05T19:36:14.068Z,8.10
2018-10-05T19:38:42.229Z,8.13
2018-10-05T19:41:10.440Z,8.03
2018-10-05T19:43:39.028Z,10.33
2018-10-05T19:46:07.580Z,9.30
2018-10-05T19:48:36.161Z,10.93
2018-10-05T19:51:04.538Z,11.73
2018-10-05T19:53:32.805Z,10.73
2018-10-05T19:56:01.343Z,10.50
2018-10-05T19:58:29.556Z,12.47
2018-10-05T20:00:57.830Z,13.67
2018-10-05T20:03:26.017Z,14.30
2018-10-05T20:05:54.430Z,15.77
2018-10-05T20:08:22.832Z,16.23
2018-10-05T20:10:50.962Z,15.33
2018-10-05T20:13:19.147Z,15.93
2018-10-05T20:15:47.342Z,15.93
2018-10-05T20:18:16.071Z,16.50
2018-10-05T20:20:44.374Z,15.67
2018-10-05T20:23:12.554Z,16.37
2018-10-05T20:25:40.779Z,16.43
2018-10-05T20:28:09.154Z,14.00
2018-10-05T20:30:37.573Z,14.93
2018-10-05T20:33:06.146Z,9.87
2018-10-05T20:35:35.366Z,10.10
2018-10-05T20:38:03.751Z,10.00
2018-10-05T20:40:33.028Z,9.07
2018-10-05T20:43:01.288Z,9.83
2018-10-05T20:45:29.551Z,9.33
2018-10-05T20:47:57.990Z,11.10
2018-10-05T20:50:26.610Z,10.87
2018-10-05T20:52:55.495Z,10.47
2018-10-05T20:55:23.885Z,13.70
2018-10-05T20:57:52.310Z,11.60
2018-10-05T21:00:20.699Z,11.33
2018-10-05T21:02:49.023Z,12.83
2018-10-05T21:05:17.501Z,11.73
2018-10-05T21:07:53.223Z,13.23
2018-10-05T21:10:21.427Z,12.37
2018-10-05T21:12:49.634Z,11.53
2018-10-05T21:15:17.919Z,11.23
2018-10-05T21:17:46.291Z,12.90
2018-10-05T21:20:14.498Z,11.40
2018-10-05T21:22:42.697Z,10.47
2018-10-05T21:25:10.898Z,8.67
2018-10-05T21:27:39.132Z,7.50
2018-10-05T21:30:07.362Z,7.43
2018-10-05T21:32:35.559Z,6.40
2018-10-05T21:35:03.987Z,6.83
2018-10-05T21:37:32.490Z,5.13
2018-10-05T21:40:00.791Z,6.10
2018-10-05T21:42:29.559Z,6.00
2018-10-05T21:44:57.830Z,6.30
2018-10-05T21:47:26.022Z,6.40
2018-10-05T21:49:54.227Z,6.50
2018-10-05T21:52:22.453Z,6.07
2018-10-05T21:54:50.623Z,5.83
2018-10-05T21:57:18.836Z,6.70
2018-10-05T21:59:47.044Z,7.23
2018-10-05T22:02:15.474Z,6.20
2018-10-05T22:04:43.682Z,6.00
2018-10-05T22:07:11.955Z,6.27
2018-10-05T22:09:40.199Z,5.43
2018-10-05T22:12:08.417Z,5.63
2018-10-05T22:14:37.082Z,5.70
2018-10-05T22:17:05.271Z,5.87
2018-10-05T22:19:33.501Z,5.87
2018-10-05T22:22:01.903Z,6.50
2018-10-05T22:24:30.114Z,6.67
2018-10-05T22:26:58.315Z,5.67
2018-10-05T22:29:26.750Z,6.40
2018-10-05T22:31:54.951Z,7.43
2018-10-05T22:34:23.150Z,6.93
2018-10-05T22:36:51.362Z,7.53
2018-10-05T22:39:19.567Z,6.67
2018-10-05T22:41:47.727Z,6.90
2018-10-05T22:44:15.883Z,5.70
2018-10-05T22:46:44.047Z,5.40
2018-10-05T22:49:12.210Z,5.20
2018-10-05T22:51:40.403Z,5.70
2018-10-05T22:54:08.559Z,6.50
2018-10-05T22:56:36.710Z,6.00
2018-10-05T22:59:04.876Z,5.97
2018-10-05T23:01:33.083Z,6.07
2018-10-05T23:04:01.316Z,6.67
2018-10-05T23:06:29.502Z,5.67
2018-10-05T23:08:57.699Z,6.53
2018-10-05T23:11:25.918Z,5.47
2018-10-05T23:13:54.127Z,5.80
2018-10-05T23:16:22.334Z,6.27
2018-10-05T23:18:50.521Z,5.50
2018-10-05T23:21:18.722Z,6.20
2018-10-05T23:23:46.955Z,6.10
2018-10-05T23:26:15.167Z,6.70
2018-10-05T23:28:43.354Z,6.10
2018-10-05T23:31:11.571Z,6.30
2018-10-05T23:33:40.002Z,6.20
2018-10-05T23:36:08.212Z,6.30
2018-10-05T23:38:36.429Z,6.17
2018-10-05T23:41:04.610Z,6.50
2018-10-05T23:43:32.799Z,7.00
2018-10-05T23:46:00.997Z,6.77
2018-10-05T23:48:29.190Z,5.90
2018-10-05T23:50:57.403Z,6.57
2018-10-05T23:53:25.581Z,6.30
2018-10-05T23:55:53.769Z,5.90
2018-10-05T23:58:21.942Z,6.20
